EZY1625 EGGP-EGNS
Flight info
| Callsign | EZY1625 |
|---|---|
| Flight time | 0h 21m |
| Altitude | 14000 |
| Route | WAL M146 LUSOD DCT IOM |
| Aircraft | A320/M-SDE3FGHIRWY/LB1 |
Departure
| Time | 2026-04-08 11:31 |
|---|---|
| Airport | Liverpool John Lennon Airport (EGGP) |
Arrival
| Time | 2026-04-08 11:53 |
|---|---|
| Airport | Isle of Man Airport (EGNS) |
| Time | Latitude | Longitude | Altitude | Speed | Heading |
|---|---|---|---|---|---|
| 2026-04-08 11:04 | 53.33587 | -2.85190 | 86 ft | 0 kts | 266° |
| 2026-04-08 11:24 | 53.33588 | -2.85182 | 85 ft | 2 kts | 266° |
| 2026-04-08 11:24 | 53.33589 | -2.85149 | 90 ft | 3 kts | 266° |
| 2026-04-08 11:24 | 53.33590 | -2.85116 | 85 ft | 3 kts | 266° |
| 2026-04-08 11:25 | 53.33593 | -2.85085 | 85 ft | 3 kts | 235° |
| 2026-04-08 11:25 | 53.33605 | -2.85069 | 85 ft | 3 kts | 183° |
| 2026-04-08 11:25 | 53.33616 | -2.85069 | 85 ft | 2 kts | 175° |
| 2026-04-08 11:25 | 53.33632 | -2.85071 | 85 ft | 1 kts | 175° |
| 2026-04-08 11:26 | 53.33633 | -2.85071 | 85 ft | 0 kts | 175° |
| 2026-04-08 11:27 | 53.33626 | -2.85070 | 85 ft | 6 kts | 175° |
| 2026-04-08 11:27 | 53.33564 | -2.85061 | 85 ft | 9 kts | 174° |
| 2026-04-08 11:28 | 53.33529 | -2.84989 | 86 ft | 12 kts | 92° |
| 2026-04-08 11:28 | 53.33539 | -2.84792 | 87 ft | 19 kts | 86° |
| 2026-04-08 11:28 | 53.33550 | -2.84542 | 79 ft | 23 kts | 85° |
| 2026-04-08 11:28 | 53.33564 | -2.84270 | 72 ft | 22 kts | 85° |
| 2026-04-08 11:29 | 53.33576 | -2.84007 | 69 ft | 22 kts | 86° |
| 2026-04-08 11:29 | 53.33586 | -2.83764 | 69 ft | 21 kts | 85° |
| 2026-04-08 11:29 | 53.33598 | -2.83519 | 65 ft | 22 kts | 85° |
| 2026-04-08 11:29 | 53.33547 | -2.83307 | 70 ft | 20 kts | 155° |
| 2026-04-08 11:30 | 53.33456 | -2.83294 | 79 ft | 9 kts | 198° |
| 2026-04-08 11:30 | 53.33438 | -2.83357 | 81 ft | 2 kts | 263° |
| 2026-04-08 11:30 | 53.33438 | -2.83360 | 81 ft | 0 kts | 263° |
| 2026-04-08 11:30 | 53.33433 | -2.83433 | 80 ft | 32 kts | 264° |
| 2026-04-08 11:31 | 53.33399 | -2.84266 | 78 ft | 107 kts | 265° |
| 2026-04-08 11:31 | 53.33319 | -2.85836 | 287 ft | 150 kts | 265° |
| 2026-04-08 11:31 | 53.33255 | -2.87566 | 1222 ft | 150 kts | 265° |
| 2026-04-08 11:31 | 53.33172 | -2.89207 | 2072 ft | 134 kts | 262° |
| 2026-04-08 11:32 | 53.33082 | -2.90770 | 2582 ft | 140 kts | 262° |
| 2026-04-08 11:32 | 53.33134 | -2.92514 | 2912 ft | 163 kts | 280° |
| 2026-04-08 11:32 | 53.33588 | -2.94397 | 3199 ft | 186 kts | 294° |
| 2026-04-08 11:32 | 53.34193 | -2.96452 | 3483 ft | 208 kts | 294° |
| 2026-04-08 11:33 | 53.34870 | -2.98752 | 3839 ft | 233 kts | 294° |
| 2026-04-08 11:33 | 53.35631 | -3.01347 | 4166 ft | 260 kts | 294° |
| 2026-04-08 11:33 | 53.36439 | -3.04094 | 5039 ft | 265 kts | 294° |
| 2026-04-08 11:33 | 53.37260 | -3.06882 | 5998 ft | 268 kts | 293° |
| 2026-04-08 11:34 | 53.38090 | -3.09703 | 6902 ft | 275 kts | 293° |
| 2026-04-08 11:34 | 53.38955 | -3.12595 | 7145 ft | 280 kts | 297° |
| 2026-04-08 11:34 | 53.40191 | -3.15130 | 8092 ft | 284 kts | 311° |
| 2026-04-08 11:34 | 53.41580 | -3.17503 | 8994 ft | 287 kts | 311° |
| 2026-04-08 11:35 | 53.42988 | -3.19907 | 9839 ft | 291 kts | 310° |
| 2026-04-08 11:35 | 53.44423 | -3.22356 | 10546 ft | 302 kts | 310° |
| 2026-04-08 11:35 | 53.45948 | -3.24967 | 10847 ft | 325 kts | 310° |
| 2026-04-08 11:35 | 53.47587 | -3.27778 | 11119 ft | 348 kts | 310° |
| 2026-04-08 11:36 | 53.49313 | -3.30732 | 11673 ft | 358 kts | 310° |
| 2026-04-08 11:36 | 53.51071 | -3.33730 | 12393 ft | 362 kts | 310° |
| 2026-04-08 11:36 | 53.52847 | -3.36757 | 13138 ft | 366 kts | 310° |
| 2026-04-08 11:36 | 53.54636 | -3.39819 | 13851 ft | 369 kts | 310° |
| 2026-04-08 11:37 | 53.56440 | -3.42914 | 14163 ft | 370 kts | 310° |
| 2026-04-08 11:37 | 53.58167 | -3.46131 | 14255 ft | 377 kts | 304° |
| 2026-04-08 11:37 | 53.59739 | -3.49804 | 14270 ft | 395 kts | 301° |
| 2026-04-08 11:37 | 53.61339 | -3.53608 | 14267 ft | 400 kts | 302° |
| 2026-04-08 11:38 | 53.62952 | -3.57444 | 14261 ft | 402 kts | 302° |
| 2026-04-08 11:38 | 53.64566 | -3.61287 | 14269 ft | 402 kts | 302° |
| 2026-04-08 11:38 | 53.66180 | -3.65135 | 14265 ft | 402 kts | 301° |
| 2026-04-08 11:38 | 53.67791 | -3.68985 | 14264 ft | 402 kts | 301° |
| 2026-04-08 11:39 | 53.69405 | -3.72843 | 14251 ft | 402 kts | 301° |
| 2026-04-08 11:39 | 53.71015 | -3.76698 | 14251 ft | 402 kts | 301° |
| 2026-04-08 11:39 | 53.72623 | -3.80557 | 14252 ft | 402 kts | 301° |
| 2026-04-08 11:39 | 53.74229 | -3.84421 | 14252 ft | 402 kts | 301° |
| 2026-04-08 11:40 | 53.75834 | -3.88291 | 14254 ft | 402 kts | 301° |
| 2026-04-08 11:40 | 53.77438 | -3.92162 | 14265 ft | 402 kts | 301° |
| 2026-04-08 11:40 | 53.79043 | -3.96037 | 14257 ft | 402 kts | 301° |
| 2026-04-08 11:40 | 53.80649 | -3.99916 | 14268 ft | 402 kts | 301° |
| 2026-04-08 11:41 | 53.82251 | -4.03797 | 14265 ft | 402 kts | 301° |
| 2026-04-08 11:41 | 53.83852 | -4.07686 | 14265 ft | 402 kts | 301° |
| 2026-04-08 11:41 | 53.85447 | -4.11572 | 14265 ft | 402 kts | 301° |
| 2026-04-08 11:41 | 53.87042 | -4.15464 | 14269 ft | 402 kts | 301° |
| 2026-04-08 11:42 | 53.88635 | -4.19352 | 14265 ft | 401 kts | 301° |
| 2026-04-08 11:42 | 53.90207 | -4.23180 | 13797 ft | 393 kts | 301° |
| 2026-04-08 11:42 | 53.91758 | -4.26964 | 13185 ft | 389 kts | 301° |
| 2026-04-08 11:42 | 53.93286 | -4.30682 | 12665 ft | 375 kts | 302° |
| 2026-04-08 11:43 | 53.95101 | -4.33802 | 11738 ft | 373 kts | 321° |
| 2026-04-08 11:43 | 53.97441 | -4.35686 | 10703 ft | 375 kts | 342° |
| 2026-04-08 11:43 | 53.99998 | -4.35943 | 10265 ft | 360 kts | 7° |
| 2026-04-08 11:43 | 54.02320 | -4.34816 | 10131 ft | 335 kts | 19° |
| 2026-04-08 11:44 | 54.04430 | -4.33475 | 9866 ft | 316 kts | 19° |
| 2026-04-08 11:44 | 54.06463 | -4.32153 | 9317 ft | 310 kts | 19° |
| 2026-04-08 11:44 | 54.08462 | -4.30846 | 8712 ft | 306 kts | 19° |
| 2026-04-08 11:44 | 54.10436 | -4.29550 | 8087 ft | 303 kts | 19° |
| 2026-04-08 11:45 | 54.12282 | -4.27914 | 7477 ft | 299 kts | 39° |
| 2026-04-08 11:45 | 54.13552 | -4.25196 | 6865 ft | 292 kts | 67° |
| 2026-04-08 11:45 | 54.13983 | -4.21890 | 6238 ft | 283 kts | 95° |
| 2026-04-08 11:45 | 54.13508 | -4.18719 | 5585 ft | 273 kts | 123° |
| 2026-04-08 11:46 | 54.12254 | -4.16406 | 5066 ft | 265 kts | 152° |
| 2026-04-08 11:46 | 54.10550 | -4.15466 | 4666 ft | 255 kts | 180° |
| 2026-04-08 11:46 | 54.08828 | -4.15975 | 4178 ft | 253 kts | 205° |
| 2026-04-08 11:46 | 54.07415 | -4.17716 | 3729 ft | 251 kts | 230° |
| 2026-04-08 11:47 | 54.06581 | -4.20262 | 3408 ft | 247 kts | 253° |
| 2026-04-08 11:47 | 54.06458 | -4.23114 | 3225 ft | 239 kts | 277° |
| 2026-04-08 11:47 | 54.07000 | -4.25712 | 3123 ft | 229 kts | 297° |
| 2026-04-08 11:47 | 54.07747 | -4.28028 | 3041 ft | 219 kts | 296° |
| 2026-04-08 11:48 | 54.08467 | -4.30288 | 2955 ft | 213 kts | 296° |
| 2026-04-08 11:48 | 54.09157 | -4.32453 | 2892 ft | 204 kts | 296° |
| 2026-04-08 11:48 | 54.09819 | -4.34537 | 2824 ft | 197 kts | 296° |
| 2026-04-08 11:48 | 54.10468 | -4.36580 | 2754 ft | 195 kts | 296° |
| 2026-04-08 11:49 | 54.10985 | -4.38675 | 2626 ft | 187 kts | 279° |
| 2026-04-08 11:49 | 54.11012 | -4.40769 | 2411 ft | 170 kts | 258° |
| 2026-04-08 11:49 | 54.10776 | -4.42681 | 2206 ft | 160 kts | 257° |
| 2026-04-08 11:49 | 54.10557 | -4.44462 | 2008 ft | 149 kts | 257° |
| 2026-04-08 11:50 | 54.10351 | -4.46126 | 1832 ft | 139 kts | 257° |
| 2026-04-08 11:50 | 54.10154 | -4.47713 | 1642 ft | 135 kts | 257° |
| 2026-04-08 11:50 | 54.09961 | -4.49271 | 1458 ft | 134 kts | 257° |
| 2026-04-08 11:50 | 54.09769 | -4.50820 | 1288 ft | 133 kts | 258° |
| 2026-04-08 11:51 | 54.09578 | -4.52361 | 1109 ft | 133 kts | 258° |
| 2026-04-08 11:51 | 54.09387 | -4.53896 | 932 ft | 132 kts | 258° |
| 2026-04-08 11:51 | 54.09196 | -4.55430 | 753 ft | 133 kts | 257° |
| 2026-04-08 11:51 | 54.09004 | -4.56966 | 581 ft | 133 kts | 257° |
| 2026-04-08 11:52 | 54.08810 | -4.58499 | 406 ft | 132 kts | 255° |
| 2026-04-08 11:52 | 54.08613 | -4.60032 | 207 ft | 133 kts | 259° |
| 2026-04-08 11:52 | 54.08426 | -4.61558 | 46 ft | 125 kts | 258° |
| 2026-04-08 11:52 | 54.08284 | -4.62671 | 43 ft | 55 kts | 259° |
| 2026-04-08 11:53 | 54.08237 | -4.63079 | 43 ft | 32 kts | 259° |
| 2026-04-08 11:53 | 54.08232 | -4.63308 | 38 ft | 11 kts | 312° |
| 2026-04-08 11:53 | 54.08285 | -4.63342 | 42 ft | 5 kts | 347° |
| 2026-04-08 11:53 | 54.08367 | -4.63372 | 43 ft | 17 kts | 346° |
| 2026-04-08 11:54 | 54.08444 | -4.63389 | 44 ft | 8 kts | 12° |
| 2026-04-08 11:54 | 54.08480 | -4.63356 | 42 ft | 6 kts | 33° |
| 2026-04-08 11:54 | 54.08523 | -4.63340 | 46 ft | 6 kts | 338° |
| 2026-04-08 11:54 | 54.08553 | -4.63366 | 46 ft | 4 kts | 10° |
| 2026-04-08 11:55 | 54.08574 | -4.63341 | 46 ft | 3 kts | 44° |
| 2026-04-08 11:55 | 54.08585 | -4.63321 | 46 ft | 0 kts | 46° |